createdAt,value
2022-12-29T00:00:10.833Z,99866.13
2022-12-29T00:02:37.444Z,99865.13
2022-12-29T00:05:04.251Z,99856.47
2022-12-29T00:07:30.698Z,99853.97
2022-12-29T00:09:57.069Z,99851.81
2022-12-29T00:12:23.462Z,99853.50
2022-12-29T00:15:08.531Z,99846.34
2022-12-29T00:17:35.011Z,99846.38
2022-12-29T00:20:19.925Z,99821.72
2022-12-29T00:23:04.593Z,99826.38
2022-12-29T00:25:49.753Z,99828.72
2022-12-29T00:28:34.500Z,99834.91
2022-12-29T00:31:20.780Z,99834.56
2022-12-29T00:34:05.817Z,99830.91
2022-12-29T00:36:39.834Z,99823.06
2022-12-29T00:39:37.545Z,99829.75
2022-12-29T00:42:26.829Z,99815.56
2022-12-29T00:44:53.389Z,99825.25
2022-12-29T00:47:19.817Z,99819.59
2022-12-29T00:49:46.288Z,99818.91
2022-12-29T00:52:13.872Z,99807.25
2022-12-29T00:54:41.575Z,99814.25
2022-12-29T00:57:10.115Z,99817.91
2022-12-29T00:59:37.841Z,99813.09
2022-12-29T01:02:04.641Z,99806.94
2022-12-29T01:04:31.235Z,99799.56
2022-12-29T01:06:57.887Z,99797.06
2022-12-29T01:09:43.669Z,99797.91
2022-12-29T01:12:11.096Z,99786.59
2022-12-29T01:14:39.468Z,99801.22
2022-12-29T01:17:06.648Z,99793.59
2022-12-29T01:19:33.839Z,99788.06
2022-12-29T01:22:00.468Z,99780.88
2022-12-29T01:24:27.313Z,99781.22
2022-12-29T01:26:55.351Z,99782.72
2022-12-29T01:29:22.676Z,99772.88
2022-12-29T01:31:51.107Z,99767.06
2022-12-29T01:34:18.383Z,99766.22
2022-12-29T01:36:44.906Z,99761.19
2022-12-29T01:39:11.463Z,99756.03
2022-12-29T01:41:37.966Z,99769.88
2022-12-29T01:44:47.685Z,99763.53
2022-12-29T01:47:29.414Z,99756.84
2022-12-29T01:49:58.812Z,99753.19
2022-12-29T01:52:29.193Z,99762.19
2022-12-29T01:54:57.412Z,99750.34
2022-12-29T01:57:32.429Z,99749.00
2022-12-29T02:00:09.369Z,99745.84
2022-12-29T02:02:37.052Z,99741.50
2022-12-29T02:05:30.141Z,99749.16
2022-12-29T02:07:56.705Z,99726.16
2022-12-29T02:10:26.777Z,99723.81
2022-12-29T02:12:53.800Z,99726.31
2022-12-29T02:15:36.991Z,99730.13
2022-12-29T02:18:15.648Z,99720.28
2022-12-29T02:21:11.574Z,99702.75
2022-12-29T02:23:52.495Z,99714.09
2022-12-29T02:26:52.716Z,99720.78
2022-12-29T02:29:32.829Z,99706.09
2022-12-29T02:32:04.055Z,99702.44
2022-12-29T02:34:33.433Z,99706.75
2022-12-29T02:37:11.403Z,99701.09
2022-12-29T02:40:13.012Z,99693.25
2022-12-29T02:43:04.982Z,99678.00
2022-12-29T02:45:43.498Z,99695.06
2022-12-29T02:48:23.528Z,99698.19
2022-12-29T02:51:02.936Z,99694.88
2022-12-29T02:53:51.423Z,99680.69
2022-12-29T02:56:18.488Z,99684.38
2022-12-29T02:58:45.066Z,99696.84
2022-12-29T03:01:38.027Z,99693.50
2022-12-29T03:04:32.621Z,99688.78
2022-12-29T03:07:10.301Z,99675.66
2022-12-29T03:10:10.878Z,99676.59
2022-12-29T03:13:05.939Z,99683.44
2022-12-29T03:16:00.928Z,99682.94
2022-12-29T03:18:40.844Z,99656.03
2022-12-29T03:21:18.751Z,99657.66
2022-12-29T03:23:51.009Z,99667.56
2022-12-29T03:26:20.950Z,99655.84
2022-12-29T03:28:53.625Z,99660.00
2022-12-29T03:31:23.777Z,99648.31
2022-12-29T03:33:51.572Z,99645.78
2022-12-29T03:36:29.266Z,99642.28
2022-12-29T03:39:06.978Z,99634.91
2022-12-29T03:41:35.654Z,99649.75
2022-12-29T03:44:02.229Z,99645.59
2022-12-29T03:46:28.722Z,99656.38
2022-12-29T03:48:55.182Z,99646.06
2022-12-29T03:51:22.086Z,99631.50
2022-12-29T03:53:48.499Z,99633.66
2022-12-29T03:56:14.947Z,99630.34
2022-12-29T03:58:41.367Z,99630.47
2022-12-29T04:01:08.077Z,99612.78
2022-12-29T04:03:35.109Z,99617.59
2022-12-29T04:06:01.644Z,99610.75
2022-12-29T04:08:28.036Z,99613.72
2022-12-29T04:10:54.448Z,99598.69
2022-12-29T04:13:20.982Z,99593.00
2022-12-29T04:15:47.561Z,99611.06
2022-12-29T04:18:14.305Z,99605.53
2022-12-29T04:20:59.680Z,99604.66
2022-12-29T04:23:26.647Z,99593.13
2022-12-29T04:25:53.135Z,99590.94
2022-12-29T04:28:19.986Z,99594.34
2022-12-29T04:30:47.429Z,99603.03
2022-12-29T04:33:14.223Z,99603.94
2022-12-29T04:35:40.838Z,99576.28
2022-12-29T04:38:07.352Z,99568.00
2022-12-29T04:40:34.018Z,99582.03
2022-12-29T04:43:00.493Z,99580.47
2022-12-29T04:45:27.054Z,99587.41
2022-12-29T04:47:53.579Z,99579.38
2022-12-29T04:50:19.998Z,99573.66
2022-12-29T04:52:46.508Z,99562.97
2022-12-29T04:55:12.945Z,99568.03
2022-12-29T04:57:39.404Z,99561.66
2022-12-29T05:00:07.116Z,99558.91
2022-12-29T05:02:34.276Z,99563.97
2022-12-29T05:05:00.835Z,99561.09
2022-12-29T05:07:27.265Z,99557.22
2022-12-29T05:09:53.719Z,99560.25
2022-12-29T05:12:20.203Z,99563.94
2022-12-29T05:14:46.604Z,99558.13
2022-12-29T05:17:13.068Z,99552.78
2022-12-29T05:19:39.542Z,99542.16
2022-12-29T05:22:05.985Z,99546.28
2022-12-29T05:24:32.436Z,99550.91
2022-12-29T05:26:59.971Z,99559.41
2022-12-29T05:29:26.387Z,99565.84
2022-12-29T05:31:52.944Z,99567.97
2022-12-29T05:34:19.475Z,99569.28
2022-12-29T05:36:45.873Z,99570.13
2022-12-29T05:39:12.348Z,99563.47
2022-12-29T05:41:38.756Z,99572.50
2022-12-29T05:44:05.277Z,99562.63
2022-12-29T05:46:31.804Z,99571.00
2022-12-29T05:48:58.664Z,99564.56
2022-12-29T05:51:25.151Z,99559.97
2022-12-29T05:53:51.910Z,99548.88
2022-12-29T05:56:18.437Z,99548.06
2022-12-29T05:58:44.833Z,99562.28
2022-12-29T06:01:11.287Z,99567.25
2022-12-29T06:03:40.670Z,99566.91
2022-12-29T06:06:09.507Z,99582.13
2022-12-29T06:08:36.077Z,99579.44
2022-12-29T06:11:02.646Z,99577.78
2022-12-29T06:13:29.056Z,99578.88
2022-12-29T06:15:55.651Z,99583.31
2022-12-29T06:18:22.194Z,99575.75
2022-12-29T06:20:48.961Z,99584.22
2022-12-29T06:23:15.715Z,99577.22
2022-12-29T06:25:42.097Z,99566.16
2022-12-29T06:28:11.751Z,99581.38
2022-12-29T06:30:38.963Z,99588.84
2022-12-29T06:33:05.394Z,99573.00
2022-12-29T06:35:32.073Z,99578.16
2022-12-29T06:37:58.559Z,99578.53
2022-12-29T06:40:25.020Z,99589.03
2022-12-29T06:42:51.479Z,99570.69
2022-12-29T06:45:17.844Z,99578.16
2022-12-29T06:47:44.235Z,99579.72
2022-12-29T06:50:10.675Z,99563.50
2022-12-29T06:52:37.216Z,99559.63
2022-12-29T06:55:03.931Z,99558.13
2022-12-29T06:57:30.466Z,99559.72
2022-12-29T06:59:57.012Z,99556.84
2022-12-29T07:02:26.228Z,99570.41
2022-12-29T07:04:53.406Z,99564.84
2022-12-29T07:07:20.916Z,99558.59
2022-12-29T07:09:47.650Z,99565.31
2022-12-29T07:12:14.133Z,99573.31
2022-12-29T07:14:43.303Z,99551.72
2022-12-29T07:17:10.206Z,99574.69
2022-12-29T07:19:36.953Z,99568.72
2022-12-29T07:22:03.667Z,99580.25
2022-12-29T07:24:30.790Z,99591.56
2022-12-29T07:26:57.428Z,99587.78
2022-12-29T07:29:24.010Z,99583.09
2022-12-29T07:31:50.502Z,99582.09
2022-12-29T07:34:16.882Z,99576.34
2022-12-29T07:36:43.637Z,99585.84
2022-12-29T07:39:10.092Z,99570.66
2022-12-29T07:41:36.600Z,99581.53
2022-12-29T07:44:03.039Z,99578.66
2022-12-29T07:46:56.060Z,99595.66
2022-12-29T07:49:15.830Z,99596.84
2022-12-29T07:51:42.215Z,99597.50
2022-12-29T07:54:10.284Z,99596.09
2022-12-29T07:56:37.057Z,99600.09
2022-12-29T07:59:03.445Z,99596.75
2022-12-29T08:01:29.932Z,99590.88
2022-12-29T08:03:57.756Z,99600.56
2022-12-29T08:06:24.508Z,99614.75
2022-12-29T08:08:50.989Z,99616.25
2022-12-29T08:11:17.383Z,99612.09
2022-12-29T08:13:43.893Z,99617.91
2022-12-29T08:16:10.417Z,99615.91
2022-12-29T08:18:37.047Z,99618.75
2022-12-29T08:21:05.339Z,99620.59
2022-12-29T08:23:32.488Z,99624.63
2022-12-29T08:26:04.095Z,99624.81
2022-12-29T08:28:31.327Z,99632.53
2022-12-29T08:31:03.195Z,99643.78
2022-12-29T08:33:30.087Z,99647.28
2022-12-29T08:36:04.019Z,99647.28
2022-12-29T08:38:30.748Z,99643.88
2022-12-29T08:40:57.986Z,99654.41
2022-12-29T08:43:25.241Z,99645.38
2022-12-29T08:45:52.106Z,99653.97
2022-12-29T08:48:20.783Z,99642.63
2022-12-29T08:50:47.969Z,99661.44
2022-12-29T08:53:14.468Z,99648.25
2022-12-29T08:55:41.264Z,99636.31
2022-12-29T08:58:07.698Z,99650.88
2022-12-29T09:00:34.086Z,99650.88
2022-12-29T09:03:00.636Z,99656.78
2022-12-29T09:05:27.168Z,99654.75
2022-12-29T09:07:53.629Z,99665.94
2022-12-29T09:10:20.252Z,99670.81
2022-12-29T09:12:46.779Z,99677.00
2022-12-29T09:15:13.771Z,99663.28
2022-12-29T09:17:46.500Z,99647.56
2022-12-29T09:20:15.080Z,99676.06
2022-12-29T09:22:41.647Z,99615.09
2022-12-29T09:25:09.348Z,99672.31
2022-12-29T09:27:37.067Z,99667.69
2022-12-29T09:30:07.346Z,99679.16
2022-12-29T09:32:36.040Z,99668.53
2022-12-29T09:35:05.042Z,99685.13
2022-12-29T09:37:31.437Z,99689.94
2022-12-29T09:39:57.856Z,99667.16
2022-12-29T09:42:55.226Z,99699.56
2022-12-29T09:45:31.868Z,99696.88
2022-12-29T09:47:58.443Z,99710.53
2022-12-29T09:50:33.820Z,99686.72
2022-12-29T09:53:10.640Z,99701.78
2022-12-29T09:55:46.007Z,99695.41
2022-12-29T09:58:37.297Z,99690.59
2022-12-29T10:01:06.189Z,99709.97
2022-12-29T10:03:45.748Z,99714.31
2022-12-29T10:06:22.545Z,99714.16
2022-12-29T10:09:01.271Z,99725.69
2022-12-29T10:12:05.572Z,99716.66
2022-12-29T10:14:55.533Z,99713.50
2022-12-29T10:17:31.248Z,99721.16
2022-12-29T10:20:29.505Z,99710.53
2022-12-29T10:23:01.806Z,99704.81
2022-12-29T10:25:33.398Z,99706.75
2022-12-29T10:28:05.073Z,99714.16
2022-12-29T10:30:35.446Z,99707.31
2022-12-29T10:33:12.999Z,99723.91
2022-12-29T10:35:41.549Z,99704.16
2022-12-29T10:38:25.982Z,99713.56
2022-12-29T10:41:04.239Z,99709.22
2022-12-29T10:43:37.051Z,99695.94
2022-12-29T10:46:07.815Z,99698.25
2022-12-29T10:48:36.011Z,99685.94
2022-12-29T10:51:05.368Z,99705.28
2022-12-29T10:53:40.628Z,99691.78
2022-12-29T10:56:35.837Z,99696.41
2022-12-29T10:59:13.744Z,99663.25
2022-12-29T11:02:07.913Z,99692.97
2022-12-29T11:05:05.207Z,99690.63
2022-12-29T11:07:32.286Z,99707.22
2022-12-29T11:10:37.108Z,99660.97
2022-12-29T11:13:12.598Z,99691.81
2022-12-29T11:15:44.187Z,99669.94
2022-12-29T11:18:33.770Z,99698.81
2022-12-29T11:21:03.719Z,99687.00
2022-12-29T11:23:41.903Z,99695.75
2022-12-29T11:26:27.663Z,99692.16
2022-12-29T11:29:21.026Z,99688.66
2022-12-29T11:31:59.880Z,99690.78
2022-12-29T11:34:37.108Z,99694.94
2022-12-29T11:37:07.402Z,99686.00
2022-12-29T11:39:40.307Z,99679.41
2022-12-29T11:42:13.321Z,99678.78
2022-12-29T11:44:45.225Z,99679.63
2022-12-29T11:47:24.305Z,99688.03
2022-12-29T11:49:56.540Z,99694.13
2022-12-29T11:52:26.350Z,99688.66
2022-12-29T11:54:55.977Z,99691.25
2022-12-29T11:57:23.951Z,99703.69
2022-12-29T11:59:51.508Z,99710.19
2022-12-29T12:02:42.787Z,99703.06
2022-12-29T12:05:15.869Z,99702.41
2022-12-29T12:07:46.720Z,99702.50
2022-12-29T12:10:24.939Z,99703.44
2022-12-29T12:12:59.500Z,99712.19
2022-12-29T12:15:32.673Z,99714.69
2022-12-29T12:18:35.388Z,99711.00
2022-12-29T12:21:11.629Z,99705.09
2022-12-29T12:23:45.355Z,99715.63
2022-12-29T12:26:17.027Z,99715.34
2022-12-29T12:28:52.251Z,99703.50
2022-12-29T12:31:28.877Z,99701.28
2022-12-29T12:34:01.386Z,99699.34
2022-12-29T12:37:00.265Z,99706.94
2022-12-29T12:39:28.127Z,99709.03
2022-12-29T12:42:23.497Z,99715.03
2022-12-29T12:45:23.978Z,99704.81
2022-12-29T12:48:04.596Z,99712.94
2022-12-29T12:50:50.048Z,99710.81
2022-12-29T12:53:37.471Z,99716.34
2022-12-29T12:56:25.491Z,99720.69
2022-12-29T12:59:10.053Z,99713.31
2022-12-29T13:01:58.396Z,99715.03
2022-12-29T13:04:53.449Z,99722.59
2022-12-29T13:08:03.886Z,99730.47
2022-12-29T13:10:41.820Z,99739.72
2022-12-29T13:13:40.279Z,99744.31
2022-12-29T13:16:20.259Z,99752.06
2022-12-29T13:18:46.740Z,99758.34
2022-12-29T13:21:39.022Z,99755.31
2022-12-29T13:24:24.659Z,99760.84
2022-12-29T13:26:58.863Z,99766.78
2022-12-29T13:29:41.472Z,99783.84
2022-12-29T13:32:23.997Z,99784.59
2022-12-29T13:35:08.539Z,99785.00
2022-12-29T13:37:41.178Z,99787.16
2022-12-29T13:40:22.261Z,99791.59
2022-12-29T13:42:49.719Z,99791.63
2022-12-29T13:45:20.124Z,99802.84
2022-12-29T13:48:05.199Z,99817.72
2022-12-29T13:50:36.277Z,99815.44
2022-12-29T13:53:12.132Z,99859.69
2022-12-29T13:55:53.175Z,99866.72
2022-12-29T13:58:26.163Z,99872.25
2022-12-29T14:01:05.620Z,99873.75
2022-12-29T14:03:48.989Z,99867.78
2022-12-29T14:06:26.387Z,99875.09
2022-12-29T14:09:05.597Z,99880.38
2022-12-29T14:11:42.052Z,99855.16
2022-12-29T14:14:20.581Z,99872.09
2022-12-29T14:16:47.188Z,99881.41
2022-12-29T14:19:22.040Z,99877.03
2022-12-29T14:21:54.866Z,99877.50
2022-12-29T14:24:37.931Z,99891.13
2022-12-29T14:27:10.493Z,99889.91
2022-12-29T14:29:39.555Z,99891.75
2022-12-29T14:32:30.078Z,99904.75
2022-12-29T14:34:58.740Z,99913.75
2022-12-29T14:37:30.570Z,99920.91
2022-12-29T14:40:15.565Z,99921.56
2022-12-29T14:42:43.242Z,99922.38
2022-12-29T14:45:30.197Z,99920.91
2022-12-29T14:47:57.657Z,99929.72
2022-12-29T14:50:25.404Z,99934.06
2022-12-29T14:53:02.899Z,99933.22
2022-12-29T14:55:39.566Z,99941.69
2022-12-29T14:58:33.367Z,99942.69
2022-12-29T15:01:01.354Z,99934.50
2022-12-29T15:04:05.205Z,99955.50
2022-12-29T15:06:36.834Z,99955.09
2022-12-29T15:09:26.663Z,99963.78
2022-12-29T15:11:57.524Z,99963.41
2022-12-29T15:14:36.961Z,99965.75
2022-12-29T15:17:12.478Z,99963.41
2022-12-29T15:19:39.524Z,99967.06
2022-12-29T15:22:06.935Z,99966.91
2022-12-29T15:24:39.366Z,99963.94
2022-12-29T15:27:15.373Z,99970.63
2022-12-29T15:29:44.736Z,99990.16
2022-12-29T15:32:17.654Z,99992.19
2022-12-29T15:34:45.552Z,99996.84
2022-12-29T15:37:32.952Z,100002.41
2022-12-29T15:39:59.778Z,100009.72
2022-12-29T15:43:02.415Z,100017.22
2022-12-29T15:45:34.925Z,100014.88
2022-12-29T15:48:01.746Z,100020.34
2022-12-29T15:50:31.649Z,100008.53
2022-12-29T15:52:59.082Z,100009.22
2022-12-29T15:55:38.251Z,100030.91
2022-12-29T15:58:07.065Z,100022.53
2022-12-29T16:00:37.374Z,100038.53
2022-12-29T16:03:05.116Z,100039.59
2022-12-29T16:05:39.689Z,100025.16
2022-12-29T16:08:41.086Z,100038.63
2022-12-29T16:11:32.949Z,100036.72
2022-12-29T16:14:00.425Z,100026.63
2022-12-29T16:16:31.303Z,100048.78
2022-12-29T16:18:58.695Z,100039.44
2022-12-29T16:21:35.572Z,100051.09
2022-12-29T16:24:08.049Z,100059.53
2022-12-29T16:26:34.573Z,100056.47
2022-12-29T16:29:06.075Z,100062.97
2022-12-29T16:31:50.107Z,100059.47
2022-12-29T16:34:30.983Z,100068.72
2022-12-29T16:37:05.628Z,100056.56
2022-12-29T16:39:40.496Z,100058.69
2022-12-29T16:42:49.051Z,100057.53
2022-12-29T16:45:47.171Z,100056.00
2022-12-29T16:48:22.965Z,100056.78
2022-12-29T16:50:50.132Z,100058.47
2022-12-29T16:53:22.781Z,100061.97
2022-12-29T16:55:51.030Z,100068.13
2022-12-29T16:58:21.485Z,100072.59
2022-12-29T17:00:48.341Z,100072.47
2022-12-29T17:03:16.117Z,100079.75
2022-12-29T17:05:42.633Z,100067.94
2022-12-29T17:08:23.839Z,100081.66
2022-12-29T17:11:14.834Z,100077.16
2022-12-29T17:13:41.454Z,100073.81
2022-12-29T17:16:10.770Z,100077.16
2022-12-29T17:18:37.554Z,100074.88
2022-12-29T17:21:04.128Z,100073.81
2022-12-29T17:23:33.476Z,100077.56
2022-12-29T17:26:00.167Z,100090.25
2022-12-29T17:28:32.496Z,100092.59
2022-12-29T17:31:03.795Z,100084.91
2022-12-29T17:33:36.254Z,100093.00
2022-12-29T17:36:02.770Z,100096.69
2022-12-29T17:38:31.745Z,100095.41
2022-12-29T17:40:58.791Z,100097.78
2022-12-29T17:43:25.355Z,100099.84
2022-12-29T17:45:57.621Z,100088.41
2022-12-29T17:48:25.003Z,100090.63
2022-12-29T17:50:53.767Z,100092.66
2022-12-29T17:53:26.788Z,100090.50
2022-12-29T17:55:53.480Z,100091.59
2022-12-29T17:58:25.330Z,100104.25
2022-12-29T18:00:54.578Z,100091.59
2022-12-29T18:03:26.858Z,100093.59
2022-12-29T18:05:53.728Z,100091.63
2022-12-29T18:08:20.171Z,100109.81
2022-12-29T18:10:47.426Z,100112.50
2022-12-29T18:13:24.255Z,100120.69
2022-12-29T18:15:51.477Z,100124.03
2022-12-29T18:18:37.208Z,100122.06
2022-12-29T18:21:03.634Z,100119.38
2022-12-29T18:23:32.676Z,100125.97
2022-12-29T18:26:02.024Z,100134.47
2022-12-29T18:28:28.590Z,100126.81
2022-12-29T18:30:57.996Z,100131.78
2022-12-29T18:33:26.777Z,100126.47
2022-12-29T18:36:04.128Z,100127.00
2022-12-29T18:38:31.406Z,100132.16
2022-12-29T18:40:58.991Z,100127.00
2022-12-29T18:43:25.624Z,100119.16
2022-12-29T18:45:52.351Z,100112.00
2022-12-29T18:48:20.739Z,100109.97
2022-12-29T18:50:52.153Z,100118.31
2022-12-29T18:53:23.748Z,100114.66
2022-12-29T18:55:51.282Z,100105.31
2022-12-29T18:58:17.977Z,100110.31
2022-12-29T19:00:44.634Z,100106.31
2022-12-29T19:03:14.507Z,100105.34
2022-12-29T19:05:43.382Z,100109.69
2022-12-29T19:08:10.558Z,100114.19
2022-12-29T19:10:37.835Z,100087.53
2022-12-29T19:13:05.044Z,100078.16
2022-12-29T19:15:34.022Z,100087.00
2022-12-29T19:18:41.774Z,100090.19
2022-12-29T19:20:51.193Z,100086.53
2022-12-29T19:23:20.961Z,100096.38
2022-12-29T19:25:48.447Z,100108.72
2022-12-29T19:28:23.587Z,100089.34
2022-12-29T19:30:52.776Z,100091.88
2022-12-29T19:33:21.623Z,100097.19
2022-12-29T19:35:48.679Z,100089.34
2022-12-29T19:38:15.411Z,100093.00
2022-12-29T19:40:44.294Z,100095.00
2022-12-29T19:43:12.267Z,100091.47
2022-12-29T19:45:40.491Z,100099.81
2022-12-29T19:48:07.860Z,100095.41
2022-12-29T19:50:35.067Z,100095.69
2022-12-29T19:53:05.351Z,100111.38
2022-12-29T19:55:32.792Z,100113.03
2022-12-29T19:57:59.285Z,100118.84
2022-12-29T20:00:25.754Z,100141.31
2022-12-29T20:02:52.515Z,100143.00
2022-12-29T20:05:19.614Z,100136.78
2022-12-29T20:07:46.289Z,100133.97
2022-12-29T20:10:12.769Z,100150.56
2022-12-29T20:12:39.221Z,100141.56
2022-12-29T20:15:09.748Z,100149.53
2022-12-29T20:18:11.696Z,100155.75
2022-12-29T20:20:23.289Z,100168.38
2022-12-29T20:22:49.776Z,100169.31
2022-12-29T20:25:44.265Z,100162.94
2022-12-29T20:28:03.371Z,100164.13
2022-12-29T20:30:29.795Z,100167.47
2022-12-29T20:32:56.356Z,100184.38
2022-12-29T20:35:22.920Z,100176.66
2022-12-29T20:37:49.711Z,100164.63
2022-12-29T20:40:16.331Z,100176.97
2022-12-29T20:42:42.761Z,100182.75
2022-12-29T20:45:09.721Z,100178.59
2022-12-29T20:47:36.364Z,100171.22
2022-12-29T20:50:02.920Z,100188.72
2022-12-29T20:52:29.357Z,100193.50
2022-12-29T20:54:55.749Z,100191.28
2022-12-29T20:57:22.421Z,100188.34
2022-12-29T20:59:48.887Z,100199.19
2022-12-29T21:02:22.584Z,100197.78
2022-12-29T21:07:35.717Z,100186.03
2022-12-29T21:10:02.363Z,100213.19
2022-12-29T21:12:28.749Z,100224.53
2022-12-29T21:14:55.224Z,100211.41
2022-12-29T21:17:21.713Z,100226.09
2022-12-29T21:19:48.670Z,100226.34
2022-12-29T21:22:15.147Z,100227.63
2022-12-29T21:24:41.566Z,100245.69
2022-12-29T21:27:08.179Z,100236.59
2022-12-29T21:29:34.622Z,100235.88
2022-12-29T21:32:06.301Z,100223.59
2022-12-29T21:34:34.599Z,100222.75
2022-12-29T21:37:01.175Z,100223.88
2022-12-29T21:39:27.750Z,100228.78
2022-12-29T21:42:00.004Z,100219.56
2022-12-29T21:44:45.827Z,100219.59
2022-12-29T21:47:12.286Z,100237.94
2022-12-29T21:49:38.755Z,100222.41
2022-12-29T21:52:05.365Z,100231.09
2022-12-29T21:54:50.146Z,100238.66
2022-12-29T21:57:36.382Z,100243.56
2022-12-29T22:00:23.838Z,100249.47
2022-12-29T22:03:11.367Z,100235.84
2022-12-29T22:06:02.445Z,100242.44
2022-12-29T22:08:47.137Z,100248.31
2022-12-29T22:11:32.203Z,100246.06
2022-12-29T22:14:00.269Z,100242.00
2022-12-29T22:16:27.168Z,100241.88
2022-12-29T22:18:53.693Z,100249.72
2022-12-29T22:21:20.169Z,100242.84
2022-12-29T22:23:46.624Z,100256.72
2022-12-29T22:26:14.603Z,100250.69
2022-12-29T22:28:43.855Z,100260.34
2022-12-29T22:31:29.047Z,100265.38
2022-12-29T22:34:01.277Z,100267.06
2022-12-29T22:36:29.095Z,100268.75
2022-12-29T22:38:55.663Z,100269.44
2022-12-29T22:41:22.656Z,100272.63
2022-12-29T22:43:49.091Z,100272.50
2022-12-29T22:46:15.651Z,100266.06
2022-12-29T22:48:42.109Z,100278.97
2022-12-29T22:51:08.648Z,100280.53
2022-12-29T22:53:35.208Z,100282.19
2022-12-29T22:56:09.443Z,100286.13
2022-12-29T22:58:40.137Z,100290.19
2022-12-29T23:01:06.741Z,100294.66
2022-12-29T23:03:33.320Z,100306.00
2022-12-29T23:06:01.596Z,100302.63
2022-12-29T23:08:31.486Z,100314.25
2022-12-29T23:10:58.111Z,100315.78
2022-12-29T23:13:25.673Z,100306.00
2022-12-29T23:15:52.379Z,100303.34
2022-12-29T23:18:18.810Z,100310.47
2022-12-29T23:20:45.396Z,100304.00
2022-12-29T23:23:11.873Z,100312.16
2022-12-29T23:25:39.193Z,100306.66
2022-12-29T23:28:08.158Z,100309.19
2022-12-29T23:30:35.195Z,100315.47
2022-12-29T23:33:01.753Z,100332.84
2022-12-29T23:35:28.237Z,100344.03
2022-12-29T23:37:54.623Z,100330.59
2022-12-29T23:40:21.061Z,100335.66
2022-12-29T23:42:47.556Z,100333.53
2022-12-29T23:45:14.057Z,100354.53
2022-12-29T23:47:40.495Z,100349.63
2022-12-29T23:50:08.640Z,100353.13
2022-12-29T23:52:35.186Z,100347.41
2022-12-29T23:55:01.627Z,100355.63
2022-12-29T23:57:28.057Z,100362.50
2022-12-29T23:59:54.470Z,100361.38
